METAR Data
IDs: Format: Raw Decoded Include TAF

Data at: 1701 UTC 03 Dec 2021

KS39 031655Z AUTO 00000KT 10SM CLR 03/01 A3020 RMK AO2
KS39 031635Z AUTO 00000KT 10SM CLR 02/01 A3020 RMK AO2
KS39 031615Z AUTO 00000KT 10SM CLR M01/M01 A3020 RMK AO2
KS39 031555Z AUTO 00000KT 10SM CLR M01/M02 A3020 RMK AO2
KS39 031535Z AUTO 00000KT 10SM CLR M02/M02 A3020 RMK AO2
KS39 031515Z AUTO 00000KT 10SM CLR M03/M03 A3021 RMK AO2
KS39 031455Z AUTO 00000KT 10SM CLR M02/M03 A3020 RMK AO2
KS39 031435Z AUTO 00000KT 10SM CLR M01/M01 A3019 RMK AO2
KS39 031415Z AUTO 00000KT 10SM CLR M02/M02 A3019 RMK AO2
KS39 031355Z AUTO 00000KT 10SM CLR M02/M02 A3019 RMK AO2
KS39 031335Z AUTO 00000KT 10SM CLR M02/M02 A3019 RMK AO2
KS39 031315Z AUTO 00000KT 10SM CLR M00/M01 A3019 RMK AO2
KS39 031255Z AUTO 00000KT 10SM CLR M01/M01 A3020 RMK AO2
KS39 031235Z AUTO 00000KT 10SM CLR M01/M02 A3019 RMK AO2
KS39 031215Z AUTO 09004KT 10SM CLR 01/M00 A3019 RMK AO2
KS39 031155Z AUTO 11003KT 10SM CLR M00/M01 A3019 RMK AO2
KS39 031135Z AUTO 08004KT 10SM CLR M01/M01 A3019 RMK AO2
KS39 031115Z AUTO 00000KT 10SM CLR M00/M01 A3020 RMK AO2
KS39 031055Z AUTO 00000KT 10SM CLR M00/M01 A3021 RMK AO2
KS39 031035Z AUTO 00000KT 10SM CLR M01/M02 A3021 RMK AO2
KS39 031015Z AUTO 18003KT 10SM CLR M01/M01 A3021 RMK AO2
KS39 030955Z AUTO 00000KT 10SM CLR M01/M01 A3022 RMK AO2
KS39 030935Z AUTO 00000KT 10SM CLR M00/M01 A3022 RMK AO2
KS39 030915Z AUTO 00000KT 10SM CLR M00/M01 A3022 RMK AO2
KS39 030855Z AUTO 00000KT 10SM CLR M01/M01 A3022 RMK AO2
KS39 030835Z AUTO 00000KT 10SM FEW029 FEW035 M01/M01 A3022 RMK AO2 LTG DSNT S
KS39 030815Z AUTO 00000KT 10SM BKN030 BKN035 M01/M02 A3022 RMK AO2
KS39 030755Z AUTO 00000KT 10SM FEW032 M02/M03 A3022 RMK AO2
KS39 030735Z AUTO 00000KT 10SM CLR M01/M02 A3022 RMK AO2
KS39 030715Z AUTO 00000KT 10SM CLR M01/M01 A3022 RMK AO2
KS39 030655Z AUTO 00000KT 10SM CLR M02/M02 A3024 RMK AO2
KS39 030635Z AUTO 00000KT 10SM CLR M01/M02 A3023 RMK AO2
KS39 030615Z AUTO 00000KT 10SM CLR M01/M02 A3023 RMK AO2
KS39 030555Z AUTO 00000KT 10SM CLR M00/M01 A3024 RMK AO2
KS39 030535Z AUTO 16004KT 10SM CLR M00/M01 A3023 RMK AO2
KS39 030515Z AUTO 00000KT 10SM CLR M00/M01 A3023 RMK AO2
KS39 030455Z AUTO 00000KT 10SM CLR 00/M01 A3023 RMK AO2
KS39 030435Z AUTO 00000KT 10SM CLR M01/M02 A3023 RMK AO2
KS39 030415Z AUTO 00000KT 10SM CLR 01/00 A3023 RMK AO2
KS39 030355Z AUTO 00000KT 10SM CLR 01/M00 A3022 RMK AO2
KS39 030335Z AUTO 00000KT 10SM CLR 01/M00 A3022 RMK AO2
KS39 030315Z AUTO 00000KT 10SM CLR 02/00 A3022 RMK AO2
KS39 030255Z AUTO 00000KT 10SM CLR 01/M00 A3022 RMK AO2
KS39 030235Z AUTO 20004KT 10SM CLR 02/00 A3021 RMK AO2
KS39 030215Z AUTO 23004KT 10SM CLR 03/01 A3021 RMK AO2
KS39 030155Z AUTO 00000KT 10SM CLR 03/01 A3021 RMK AO2
KS39 030135Z AUTO 26003KT 10SM CLR 05/02 A3020 RMK AO2
KS39 030115Z AUTO 00000KT 10SM CLR 06/03 A3020 RMK AO2
KS39 030055Z AUTO 34005KT 10SM CLR 07/03 A3020 RMK AO2
KS39 030035Z AUTO 00000KT 10SM CLR 09/03 A3020 RMK AO2
KS39 030015Z AUTO 00000KT 10SM CLR 10/03 A3020 RMK AO2
KS39 022355Z AUTO 33007KT 10SM CLR 11/03 A3020 RMK AO2
KS39 022335Z AUTO 34007KT 10SM CLR 12/03 A3019 RMK AO2
KS39 022315Z AUTO 33005KT 10SM 13/03 A3018 RMK AO2
KS39 022255Z AUTO 10SM CLR RMK AO2 PNO PWINO TSNO
KS39 022235Z AUTO 36008KT 320V030 10SM CLR 13/02 A3018 RMK AO2
KS39 022215Z AUTO 28005KT 10SM CLR 13/02 A3018 RMK AO2
KS39 022155Z AUTO 29005KT 10SM CLR 13/02 A3018 RMK AO2
KS39 022135Z AUTO VRB04KT 10SM CLR 13/02 A3019 RMK AO2
KS39 022115Z AUTO 28004KT 10SM CLR 12/02 A3019 RMK AO2
KS39 022050Z AUTO 28005KT 10SM CLR 12/02 A3020 RMK AO2
KS39 022035Z AUTO 28006KT 10SM CLR 12/02 A3020 RMK AO2
KS39 022015Z AUTO 30007KT 250V320 10SM CLR 13/02 A3021 RMK AO2
KS39 021955Z AUTO 29006KT 10SM CLR 12/01 A3021 RMK AO2
KS39 021935Z AUTO 29008KT 10SM CLR 11/01 A3022 RMK AO2
KS39 021915Z AUTO 28006KT 10SM CLR 12/02 A3022 RMK AO2
KS39 021855Z AUTO 27007KT 10SM CLR 12/02 A3023 RMK AO2
KS39 021835Z AUTO 00000KT 10SM CLR 11/04 A3023 RMK AO2
KS39 021815Z AUTO 33003KT 10SM CLR 10/05 A3024 RMK AO2
KS39 021755Z AUTO 00000KT 10SM CLR 08/05 A3023 RMK AO2
KS39 021735Z AUTO 06005KT 10SM CLR 08/05 A3023 RMK AO2
KS39 021715Z AUTO 30004KT 10SM CLR 09/07 A3021 RMK AO2
KS39 021655Z AUTO 00000KT 10SM CLR 07/06 A3021 RMK AO2
KS39 021635Z AUTO 00000KT 10SM CLR 05/05 A3020 RMK AO2
KS39 021615Z AUTO 00000KT 10SM CLR 04/03 A3019 RMK AO2
KS39 021555Z AUTO 00000KT 10SM CLR 03/02 A3019 RMK AO2
KS39 021535Z AUTO 20006KT 10SM CLR 02/02 A3018 RMK AO2
KS39 021515Z AUTO 00000KT 10SM FEW055 03/03 A3018 RMK AO2
KS39 021455Z AUTO 34005KT 9SM CLR 02/02 A3018 RMK AO2
KS39 021435Z AUTO 35005KT 10SM CLR 01/01 A3016 RMK AO2
KS39 021415Z AUTO 00000KT 10SM CLR 02/02 A3015 RMK AO2
KS39 021355Z AUTO 00000KT 10SM CLR 01/01 A3016 RMK AO2
KS39 021335Z AUTO 23003KT 10SM CLR 02/02 A3016 RMK AO2
KS39 021315Z AUTO 00000KT 10SM CLR 02/02 A3016 RMK AO2
KS39 021255Z AUTO 00000KT 10SM CLR 02/01 A3016 RMK AO2
KS39 021235Z AUTO 13003KT 10SM CLR 02/02 A3016 RMK AO2
KS39 021215Z AUTO 00000KT 10SM CLR 03/03 A3016 RMK AO2
KS39 021155Z AUTO 00000KT 10SM CLR 04/03 A3016 RMK AO2
KS39 021135Z AUTO 30003KT 10SM CLR 02/01 A3017 RMK AO2
KS39 021115Z AUTO 00000KT 10SM CLR 02/01 A3016 RMK AO2
KS39 021055Z AUTO 00000KT 10SM CLR 04/03 A3017 RMK AO2
KS39 021035Z AUTO 15004KT 10SM CLR 04/03 A3017 RMK AO2
KS39 021015Z AUTO 00000KT 10SM CLR 03/02 A3018 RMK AO2
KS39 020955Z AUTO 00000KT 10SM CLR 03/02 A3017 RMK AO2
KS39 020935Z AUTO 10004KT 10SM CLR 04/03 A3018 RMK AO2
KS39 020915Z AUTO 09004KT 10SM CLR 04/03 A3017 RMK AO2
KS39 020855Z AUTO 08003KT 10SM CLR 04/03 A3017 RMK AO2
KS39 020835Z AUTO 09003KT 10SM CLR 06/04 A3017 RMK AO2
KS39 020815Z AUTO VRB03KT 10SM CLR 06/04 A3018 RMK AO2
KS39 020755Z AUTO 00000KT 10SM CLR 06/04 A3018 RMK AO2
KS39 020735Z AUTO 00000KT 10SM CLR 06/04 A3019 RMK AO2
KS39 020715Z AUTO 13003KT 10SM CLR 06/04 A3019 RMK AO2
KS39 020655Z AUTO 00000KT 10SM CLR 05/03 A3019 RMK AO2
KS39 020635Z AUTO 00000KT 10SM CLR 04/02 A3019 RMK AO2
KS39 020615Z AUTO 00000KT 10SM CLR 04/03 A3019 RMK AO2
KS39 020555Z AUTO 19004KT 10SM CLR 06/05 A3018 RMK AO2
KS39 020535Z AUTO 00000KT 10SM CLR 05/03 A3018 RMK AO2
KS39 020515Z AUTO 00000KT 10SM CLR 05/03 A3018 RMK AO2